createdAt,value
2022-10-26T09:21:43.252Z,10.42
2022-10-26T09:24:32.533Z,10.52
2022-10-26T09:27:10.671Z,10.62
2022-10-26T09:29:42.116Z,10.73
2022-10-26T09:32:27.217Z,10.84
2022-10-26T09:34:59.348Z,10.94
2022-10-26T09:37:29.987Z,10.99
2022-10-26T09:40:00.721Z,11.09
2022-10-26T09:42:59.679Z,11.14
2022-10-26T09:45:33.329Z,11.22
2022-10-26T09:48:11.061Z,11.32
2022-10-26T09:50:40.343Z,11.45
2022-10-26T09:53:06.916Z,11.55
2022-10-26T09:55:39.329Z,11.60
2022-10-26T09:58:12.450Z,11.69
2022-10-26T10:00:40.039Z,11.77
2022-10-26T10:03:19.917Z,11.87
2022-10-26T10:05:51.278Z,12.00
2022-10-26T10:08:27.561Z,12.11
2022-10-26T10:10:56.388Z,12.24
2022-10-26T10:13:24.813Z,12.33
2022-10-26T10:15:59.470Z,12.48
2022-10-26T10:18:26.182Z,12.56
2022-10-26T10:20:55.326Z,12.70
2022-10-26T10:23:36.399Z,12.73
2022-10-26T10:26:08.836Z,12.84
2022-10-26T10:28:35.926Z,12.91
2022-10-26T10:31:05.713Z,12.81
2022-10-26T10:33:38.001Z,12.99
2022-10-26T10:36:09.219Z,13.14
2022-10-26T10:38:41.830Z,13.24
2022-10-26T10:41:17.585Z,13.31
2022-10-26T10:43:50.442Z,13.31
2022-10-26T10:46:23.017Z,13.34
2022-10-26T10:48:54.355Z,13.39
2022-10-26T10:51:23.971Z,13.40
2022-10-26T10:53:53.393Z,13.46
2022-10-26T10:56:41.579Z,13.47
2022-10-26T10:59:45.662Z,13.45
2022-10-26T11:02:26.124Z,13.53
2022-10-26T11:05:07.405Z,13.57
2022-10-26T11:07:45.891Z,13.64
2022-10-26T11:10:17.392Z,13.62
2022-10-26T11:12:56.885Z,13.58
2022-10-26T11:15:25.589Z,13.57
2022-10-26T11:18:05.169Z,13.64
2022-10-26T11:20:36.165Z,13.68
2022-10-26T11:23:28.546Z,13.73
2022-10-26T11:26:09.228Z,13.81
2022-10-26T11:28:45.952Z,13.92
2022-10-26T11:31:36.138Z,14.05
2022-10-26T11:34:47.014Z,14.18
2022-10-26T11:37:52.348Z,14.33
2022-10-26T11:40:31.275Z,14.48
2022-10-26T11:43:00.815Z,14.60
2022-10-26T11:45:32.628Z,14.76
2022-10-26T11:48:23.186Z,14.91
2022-10-26T11:50:54.414Z,14.90
2022-10-26T11:53:43.476Z,14.98
2022-10-26T11:56:15.482Z,15.06
2022-10-26T11:58:44.205Z,15.17
2022-10-26T12:01:15.620Z,15.26
2022-10-26T12:03:48.889Z,15.44
2022-10-26T12:06:20.407Z,15.61
2022-10-26T12:08:54.476Z,15.80
2022-10-26T12:11:35.811Z,15.97
2022-10-26T12:14:13.622Z,16.18
2022-10-26T12:16:48.230Z,16.36
2022-10-26T12:21:58.617Z,17.04
2022-10-26T12:24:26.461Z,17.19
2022-10-26T12:26:55.634Z,17.41
2022-10-26T12:29:32.233Z,17.62
2022-10-26T12:31:59.495Z,17.77
2022-10-26T12:34:31.846Z,17.85
2022-10-26T12:36:58.316Z,18.03
2022-10-26T12:39:32.117Z,18.22
2022-10-26T12:42:26.796Z,18.27
2022-10-26T12:44:53.541Z,18.49
2022-10-26T12:47:29.124Z,18.49
2022-10-26T12:50:07.743Z,18.52
2022-10-26T12:52:57.681Z,18.71
2022-10-26T12:55:39.380Z,18.36
2022-10-26T12:58:17.960Z,18.37
2022-10-26T13:00:55.895Z,18.78
2022-10-26T13:03:41.150Z,19.03
2022-10-26T13:06:07.703Z,19.12
2022-10-26T13:08:51.001Z,19.16
2022-10-26T13:11:27.307Z,19.60
2022-10-26T13:14:37.288Z,19.69
2022-10-26T13:17:22.974Z,19.73
2022-10-26T13:19:55.146Z,19.76
2022-10-26T13:22:22.846Z,19.79
2022-10-26T13:24:54.929Z,19.82
2022-10-26T13:27:24.611Z,19.66
2022-10-26T13:30:09.166Z,19.53
2022-10-26T13:32:39.062Z,19.65
2022-10-26T13:35:09.830Z,19.60
2022-10-26T13:37:37.793Z,19.58
2022-10-26T13:40:05.593Z,19.69
2022-10-26T13:42:54.848Z,19.63
2022-10-26T13:45:34.354Z,19.52
2022-10-26T13:48:38.878Z,19.55
2022-10-26T13:51:43.147Z,19.64
2022-10-26T13:54:36.836Z,19.39
2022-10-26T13:57:15.769Z,19.51
2022-10-26T13:59:45.081Z,19.40
2022-10-26T14:02:25.118Z,19.53
2022-10-26T14:04:54.161Z,19.41
2022-10-26T14:07:25.661Z,19.33
2022-10-26T14:09:53.976Z,19.14
2022-10-26T14:12:21.298Z,19.31
2022-10-26T14:14:48.789Z,19.20
2022-10-26T14:17:21.645Z,19.00
2022-10-26T14:19:49.682Z,18.68
2022-10-26T14:22:27.868Z,18.89
2022-10-26T14:24:59.583Z,18.94
2022-10-26T14:27:31.755Z,18.99
2022-10-26T14:32:48.726Z,18.92
2022-10-26T14:35:16.303Z,18.79
2022-10-26T14:37:52.758Z,18.62
2022-10-26T14:40:22.171Z,18.57
2022-10-26T14:42:54.542Z,18.39
2022-10-26T14:45:50.201Z,18.29
2022-10-26T14:48:28.555Z,18.20
2022-10-26T14:51:19.530Z,18.06
2022-10-26T14:53:51.738Z,17.99
2022-10-26T14:56:21.602Z,18.02
2022-10-26T14:58:48.853Z,18.00
2022-10-26T15:01:17.391Z,18.03
2022-10-26T15:03:45.088Z,17.92
2022-10-26T15:06:29.958Z,17.83
2022-10-26T15:08:58.957Z,17.78
2022-10-26T15:11:29.883Z,17.67
2022-10-26T15:13:58.231Z,17.63
2022-10-26T15:16:31.381Z,17.67
2022-10-26T15:19:16.111Z,17.59
2022-10-26T15:21:47.583Z,17.57
2022-10-26T15:24:38.840Z,17.48
2022-10-26T15:27:16.031Z,17.43
2022-10-26T15:29:48.948Z,17.38
2022-10-26T15:32:34.033Z,17.26
2022-10-26T15:35:24.388Z,17.16
2022-10-26T15:37:53.209Z,17.11
2022-10-26T15:40:20.043Z,17.09
2022-10-26T15:42:50.940Z,16.96
2022-10-26T15:45:22.430Z,16.88
2022-10-26T15:47:52.194Z,16.76
2022-10-26T15:50:22.376Z,16.61
2022-10-26T15:52:49.639Z,16.53
2022-10-26T15:55:17.499Z,16.47
2022-10-26T15:57:44.476Z,16.24
2022-10-26T16:00:16.380Z,16.22
2022-10-26T16:02:44.903Z,16.21
2022-10-26T16:05:13.473Z,16.10
2022-10-26T16:07:43.244Z,16.07
2022-10-26T16:10:17.146Z,15.97
2022-10-26T16:12:43.850Z,15.85
2022-10-26T16:15:17.749Z,15.74
2022-10-26T16:17:44.897Z,15.63
2022-10-26T16:20:29.663Z,15.56
2022-10-26T16:22:56.697Z,15.52
2022-10-26T16:25:26.143Z,15.43
2022-10-26T16:27:54.898Z,15.40
2022-10-26T16:30:25.822Z,15.31
2022-10-26T16:32:54.812Z,15.30
2022-10-26T16:35:21.433Z,15.21
2022-10-26T16:37:48.022Z,15.23
2022-10-26T16:40:14.741Z,15.17
2022-10-26T16:42:44.064Z,15.12
2022-10-26T16:45:14.518Z,14.98
2022-10-26T16:47:41.473Z,14.88
2022-10-26T16:50:10.092Z,14.86
2022-10-26T16:52:38.246Z,14.86
2022-10-26T16:55:06.629Z,14.84
2022-10-26T16:57:33.561Z,14.85
2022-10-26T17:00:00.171Z,14.80
2022-10-26T17:02:26.902Z,14.71
2022-10-26T17:04:53.589Z,14.70
2022-10-26T17:07:20.175Z,14.66
2022-10-26T17:09:46.720Z,14.61
2022-10-26T17:12:13.355Z,14.60
2022-10-26T17:14:39.918Z,14.67
2022-10-26T17:17:06.543Z,14.54
2022-10-26T17:19:33.084Z,14.51
2022-10-26T17:22:00.366Z,14.48
2022-10-26T17:24:28.334Z,14.47
2022-10-26T17:26:54.906Z,14.42
2022-10-26T17:29:21.490Z,14.34
2022-10-26T17:31:48.089Z,14.31
2022-10-26T17:34:14.704Z,14.31
2022-10-26T17:36:41.341Z,14.32
2022-10-26T17:39:08.391Z,14.33
2022-10-26T17:41:34.922Z,14.32
2022-10-26T17:44:01.515Z,14.31
2022-10-26T17:46:28.370Z,14.31
2022-10-26T17:48:57.054Z,14.35
2022-10-26T17:51:24.713Z,14.34
2022-10-26T17:53:51.884Z,14.36
2022-10-26T17:56:24.201Z,14.36
2022-10-26T17:58:58.549Z,14.32
2022-10-26T18:01:26.126Z,14.26
2022-10-26T18:03:53.466Z,14.27
2022-10-26T18:06:20.921Z,14.28
2022-10-26T18:08:47.919Z,14.26
2022-10-26T18:11:25.399Z,14.29
2022-10-26T18:13:54.132Z,14.28
2022-10-26T18:16:22.262Z,14.32
2022-10-26T18:18:52.976Z,14.32
2022-10-26T18:21:20.858Z,14.34
2022-10-26T18:23:47.612Z,14.30
2022-10-26T18:26:17.365Z,14.29
2022-10-26T18:28:44.575Z,14.30
2022-10-26T18:31:13.262Z,14.30
2022-10-26T18:33:40.028Z,14.28
2022-10-26T18:36:09.718Z,14.25
2022-10-26T18:38:36.883Z,14.27
2022-10-26T18:41:04.428Z,14.26
2022-10-26T18:43:31.089Z,14.26
2022-10-26T18:46:20.775Z,14.23
2022-10-26T18:48:48.335Z,14.15
2022-10-26T18:51:17.039Z,14.09
2022-10-26T18:53:45.291Z,14.01
2022-10-26T18:56:20.201Z,13.99
2022-10-26T18:58:52.234Z,14.00
2022-10-26T19:01:20.407Z,14.00
2022-10-26T19:03:47.882Z,13.98
2022-10-26T19:06:15.523Z,13.96
2022-10-26T19:08:43.348Z,13.97
2022-10-26T19:11:13.084Z,13.98
2022-10-26T19:13:39.827Z,13.92
2022-10-26T19:16:21.780Z,13.93
2022-10-26T19:18:55.911Z,13.87
2022-10-26T19:21:22.860Z,13.76
2022-10-26T19:23:52.377Z,13.76
2022-10-26T19:26:22.098Z,13.68
2022-10-26T19:28:58.352Z,13.64
2022-10-26T19:31:27.338Z,13.63
2022-10-26T19:33:56.543Z,13.56
2022-10-26T19:36:23.617Z,13.53
2022-10-26T19:38:50.227Z,13.48
2022-10-26T19:41:17.281Z,13.48
2022-10-26T19:43:44.219Z,13.54
2022-10-26T19:46:16.366Z,13.58
2022-10-26T19:48:51.414Z,13.52
2022-10-26T19:51:18.411Z,13.44
2022-10-26T19:53:45.068Z,13.46
2022-10-26T19:56:13.543Z,13.51
2022-10-26T19:58:44.677Z,13.47
2022-10-26T20:01:13.349Z,13.46
2022-10-26T20:03:40.234Z,13.42
2022-10-26T20:06:13.429Z,13.39
2022-10-26T20:08:42.595Z,13.40
2022-10-26T20:11:14.629Z,13.33
2022-10-26T20:13:43.683Z,13.30
2022-10-26T20:16:10.877Z,13.30
2022-10-26T20:18:37.751Z,13.27
2022-10-26T20:21:09.374Z,13.27
2022-10-26T20:23:36.229Z,13.24
2022-10-26T20:26:04.031Z,13.20
2022-10-26T20:28:31.016Z,13.21
2022-10-26T20:30:59.374Z,13.21
2022-10-26T20:33:26.950Z,13.20
2022-10-26T20:36:00.294Z,13.18
2022-10-26T20:38:27.271Z,13.15
2022-10-26T20:40:56.593Z,13.13
2022-10-26T20:43:24.206Z,13.08
2022-10-26T20:45:51.341Z,13.04
2022-10-26T20:48:18.715Z,13.04
2022-10-26T20:51:03.074Z,13.01
2022-10-26T20:53:35.721Z,12.94
2022-10-26T20:56:10.756Z,12.90
2022-10-26T20:58:41.244Z,12.83
2022-10-26T21:01:19.078Z,12.83
2022-10-26T21:03:45.700Z,12.80
2022-10-26T21:06:12.490Z,12.78
2022-10-26T21:08:39.053Z,12.79
2022-10-26T21:11:05.787Z,12.73
2022-10-26T21:13:32.341Z,12.71
2022-10-26T21:15:58.899Z,12.67
2022-10-26T21:18:25.499Z,12.66
2022-10-26T21:20:52.062Z,12.62
2022-10-26T21:23:18.632Z,12.59
2022-10-26T21:25:45.189Z,12.54
2022-10-26T21:28:12.016Z,12.51
2022-10-26T21:30:38.649Z,12.49
2022-10-26T21:33:05.302Z,12.40
2022-10-26T21:35:31.852Z,12.31
2022-10-26T21:37:58.429Z,12.25
2022-10-26T21:40:25.034Z,12.21
2022-10-26T21:42:52.353Z,12.11
2022-10-26T21:45:19.326Z,12.06
2022-10-26T21:47:50.596Z,12.00
2022-10-26T21:50:17.401Z,12.00
2022-10-26T21:52:44.108Z,11.93
2022-10-26T21:55:12.533Z,11.87
2022-10-26T21:57:39.292Z,11.77
2022-10-26T22:00:06.609Z,11.71
2022-10-26T22:02:33.249Z,11.70
2022-10-26T22:04:59.802Z,11.67
2022-10-26T22:07:26.350Z,11.61
2022-10-26T22:10:07.699Z,11.57
2022-10-26T22:12:36.485Z,11.50
2022-10-26T22:15:03.118Z,11.51
2022-10-26T22:17:29.735Z,11.49
2022-10-26T22:19:56.311Z,11.47
2022-10-26T22:22:22.905Z,11.43
2022-10-26T22:24:49.483Z,11.40
2022-10-26T22:27:16.216Z,11.35
2022-10-26T22:29:42.743Z,11.23
2022-10-26T22:32:09.362Z,11.15
2022-10-26T22:34:35.952Z,11.12
2022-10-26T22:37:02.735Z,11.13
2022-10-26T22:39:29.323Z,11.10
2022-10-26T22:41:55.893Z,11.06
2022-10-26T22:44:22.493Z,11.08
2022-10-26T22:46:49.153Z,11.06
2022-10-26T22:49:15.918Z,11.00
2022-10-26T22:51:42.524Z,10.96
2022-10-26T22:54:11.576Z,10.88
2022-10-26T22:56:38.522Z,10.84
2022-10-26T22:59:06.324Z,10.80
2022-10-26T23:01:36.936Z,10.82
2022-10-26T23:04:03.710Z,10.76
2022-10-26T23:06:31.795Z,10.77
2022-10-26T23:08:59.322Z,10.76
2022-10-26T23:11:28.042Z,10.68
2022-10-26T23:14:00.030Z,10.69
2022-10-26T23:16:27.836Z,10.66
2022-10-26T23:18:55.010Z,10.63
2022-10-26T23:21:23.413Z,10.56
2022-10-26T23:23:50.122Z,10.48
2022-10-26T23:26:18.862Z,10.44
2022-10-26T23:28:45.913Z,10.42
2022-10-26T23:31:26.459Z,10.40
2022-10-26T23:33:55.092Z,10.33
2022-10-26T23:36:21.775Z,10.30
2022-10-26T23:38:51.268Z,10.30
2022-10-26T23:41:17.800Z,10.30
2022-10-26T23:43:44.407Z,10.32
2022-10-26T23:46:11.067Z,10.30
2022-10-26T23:48:37.712Z,10.35
2022-10-26T23:51:04.922Z,10.39
2022-10-26T23:53:31.800Z,10.40
2022-10-26T23:55:58.315Z,10.34
2022-10-26T23:58:24.939Z,10.28
